Time;durP1;ratioP1;P1;durP2;ratioP2;P2;SDS_P1;SDS_P2;PMS_P1;PMS_P2;Temp;Humidity;BMP_temperature;BMP_pressure;BME280_temperature;BME280_humidity;BME280_pressure;Samples;Min_cycle;Max_cycle;Signal;HPM_P1;HPM_P2
2022/01/23 00:00:39;;;;;;;62.28;25.60;;;2.00;90.90;;;;;;4995157;28;20041;-76
2022/01/23 00:03:09;;;;;;;66.90;25.70;;;2.00;91.00;;;;;;4978902;28;20053;-77
2022/01/23 00:05:41;;;;;;;60.08;24.13;;;2.00;91.30;;;;;;4979609;28;20045;-77
2022/01/23 00:08:07;;;;;;;73.03;28.10;;;2.00;91.30;;;;;;4979800;28;20026;-77
2022/01/23 00:10:33;;;;;;;71.38;27.52;;;1.90;91.60;;;;;;4995111;28;20028;-77
2022/01/23 00:13:25;;;;;;;69.43;25.42;;;2.00;91.80;;;;;;4978674;28;20030;-77
2022/01/23 00:18:36;;;;;;;61.85;23.88;;;2.00;91.60;;;;;;5012902;28;20442;-77
2022/01/23 00:21:04;;;;;;;56.45;23.42;;;2.10;91.40;;;;;;4994768;28;20034;-77
2022/01/23 00:31:36;;;;;;;58.17;23.88;;;2.20;90.50;;;;;;4992324;28;20069;-77
2022/01/23 00:34:02;;;;;;;64.43;26.35;;;2.20;90.20;;;;;;4992929;28;20403;-77
2022/01/23 00:36:29;;;;;;;56.60;23.90;;;2.20;90.20;;;;;;4991686;28;20029;-76
2022/01/23 00:38:56;;;;;;;58.22;24.48;;;2.20;90.40;;;;;;4991760;28;20037;-77
2022/01/23 00:41:22;;;;;;;58.97;23.92;;;2.20;90.50;;;;;;4993489;28;20042;-77
2022/01/23 00:43:52;;;;;;;61.97;24.98;;;2.30;90.60;;;;;;4994823;28;20133;-77
2022/01/23 00:51:35;;;;;;;58.45;23.02;;;2.40;89.90;;;;;;4996488;28;20045;-77
2022/01/23 00:54:04;;;;;;;52.85;24.15;;;2.40;89.80;;;;;;4996423;28;20022;-77
2022/01/23 00:56:31;;;;;;;55.58;23.38;;;2.40;89.70;;;;;;4994978;28;20023;-77
2022/01/23 00:58:57;;;;;;;51.97;23.23;;;2.40;89.70;;;;;;4994789;28;20022;-77
2022/01/23 01:01:23;;;;;;;56.67;24.05;;;2.50;89.50;;;;;;4996091;28;20062;-77
2022/01/23 01:03:49;;;;;;;52.22;24.02;;;2.50;89.30;;;;;;4994875;28;20379;-77
2022/01/23 01:06:15;;;;;;;51.42;22.00;;;2.50;89.20;;;;;;4994487;28;20026;-77
2022/01/23 01:08:41;;;;;;;49.58;23.08;;;2.50;88.90;;;;;;4994565;28;20026;-77
2022/01/23 01:13:56;;;;;;;56.05;24.15;;;2.50;88.70;;;;;;4995930;28;20130;-77
2022/01/23 01:32:52;;;;;;;64.40;26.95;;;2.10;90.30;;;;;;5015375;28;20083;-77
2022/01/23 01:35:26;;;;;;;64.18;25.17;;;2.10;90.60;;;;;;5014375;28;20034;-78
2022/01/23 01:37:53;;;;;;;55.90;24.05;;;2.10;90.80;;;;;;5015144;28;20084;-77
2022/01/23 01:40:20;;;;;;;55.33;24.70;;;2.00;91.10;;;;;;4997311;28;20129;-77
2022/01/23 01:42:46;;;;;;;59.25;23.50;;;2.10;91.20;;;;;;4997210;28;20499;-77
2022/01/23 01:45:12;;;;;;;54.67;22.92;;;2.10;91.20;;;;;;4997379;28;20061;-77
2022/01/23 01:47:46;;;;;;;52.22;22.23;;;2.00;91.30;;;;;;4997248;28;20018;-78
2022/01/23 01:50:11;;;;;;;53.13;23.00;;;2.00;91.10;;;;;;4997391;28;20032;-77
2022/01/23 01:52:37;;;;;;;46.40;20.85;;;2.10;91.20;;;;;;4995695;28;20022;-77
2022/01/23 01:55:06;;;;;;;41.88;18.40;;;2.10;91.10;;;;;;4996958;28;20474;-77
2022/01/23 01:57:39;;;;;;;42.20;18.77;;;2.10;90.90;;;;;;4997099;28;20022;-77
2022/01/23 02:03:07;;;;;;;44.20;19.42;;;2.20;90.80;;;;;;5014548;28;20427;-77
2022/01/23 02:08:27;;;;;;;32.40;16.20;;;2.30;90.80;;;;;;5014556;28;20037;-77
2022/01/23 02:11:01;;;;;;;36.45;16.42;;;2.40;90.20;;;;;;4996934;28;20132;-77
2022/01/23 02:14:15;;;;;;;39.42;18.88;;;2.50;90.00;;;;;;4996865;28;20049;-76
2022/01/23 02:55:08;;;;;;;39.38;18.40;;;2.70;88.40;;;;;;5013881;28;20084;-77
2022/01/23 03:00:15;;;;;;;48.88;22.40;;;2.70;88.30;;;;;;5013626;28;20042;-77
2022/01/23 03:02:49;;;;;;;40.78;19.02;;;2.60;88.10;;;;;;4995504;28;20029;-77
2022/01/23 03:05:33;;;;;;;38.60;18.63;;;2.70;88.30;;;;;;4980668;28;20034;-77
2022/01/23 03:10:33;;;;;;;43.22;19.30;;;2.70;88.20;;;;;;5013026;28;20038;-77
2022/01/23 03:26:28;;;;;;;47.90;20.75;;;2.70;88.20;;;;;;5013425;28;20083;-77
2022/01/23 03:32:10;;;;;;;33.58;16.08;;;2.70;88.00;;;;;;5013381;28;20544;-77
2022/01/23 03:34:28;;;;;;;40.85;19.67;;;2.70;88.00;;;;;;5011446;28;20076;-76
2022/01/23 03:36:55;;;;;;;43.72;20.30;;;2.70;87.90;;;;;;4995542;28;20471;-76
2022/01/23 03:39:21;;;;;;;37.92;18.75;;;2.70;87.80;;;;;;4995288;28;20026;-77
2022/01/23 03:41:47;;;;;;;46.10;20.23;;;2.70;87.80;;;;;;4995424;28;20060;-75
2022/01/23 03:44:16;;;;;;;39.72;19.15;;;2.70;87.80;;;;;;4995539;28;20494;-75
2022/01/23 03:49:31;;;;;;;38.72;18.42;;;2.70;87.80;;;;;;5013192;28;20037;-75
2022/01/23 03:52:08;;;;;;;39.25;19.23;;;2.70;87.90;;;;;;4994710;28;20537;-76
2022/01/23 03:54:36;;;;;;;51.72;23.02;;;2.70;87.70;;;;;;4995368;28;20026;-76
2022/01/23 03:57:03;;;;;;;59.03;25.42;;;2.70;87.60;;;;;;4995398;28;20026;-76
2022/01/23 03:59:30;;;;;;;67.07;27.08;;;2.70;87.70;;;;;;4995009;28;20022;-76
2022/01/23 04:01:56;;;;;;;61.92;27.63;;;2.70;87.60;;;;;;4994590;28;20038;-76
2022/01/23 04:04:41;;;;;;;54.78;25.40;;;2.70;87.50;;;;;;4995164;28;20412;-76
2022/01/23 04:07:19;;;;;;;56.80;25.42;;;2.70;87.60;;;;;;4981610;28;20030;-77
2022/01/23 04:09:47;;;;;;;55.20;24.60;;;2.70;87.40;;;;;;4995273;28;20057;-76
2022/01/23 04:15:06;;;;;;;57.30;24.52;;;2.70;87.30;;;;;;5013016;28;20080;-76
2022/01/23 04:18:45;;;;;;;49.90;24.45;;;2.70;87.30;;;;;;4998891;28;20022;-76
2022/01/23 04:33:47;;;;;;;42.35;21.38;;;2.60;87.30;;;;;;5016461;28;20033;-76
2022/01/23 04:48:15;;;;;;;43.10;19.88;;;2.60;87.30;;;;;;5016401;28;20252;-76
2022/01/23 05:01:03;;;;;;;43.03;19.35;;;2.60;87.40;;;;;;5015740;28;20048;-76
2022/01/23 05:04:07;;;;;;;42.42;19.25;;;2.60;87.50;;;;;;4998090;28;20018;-77
2022/01/23 05:06:25;;;;;;;40.15;19.25;;;2.70;87.60;;;;;;5013105;28;20040;-76
2022/01/23 05:08:52;;;;;;;36.80;18.58;;;2.60;87.50;;;;;;4997935;28;20025;-76
2022/01/23 05:11:18;;;;;;;40.53;21.00;;;2.60;87.50;;;;;;4997891;28;20113;-76
2022/01/23 05:13:45;;;;;;;43.70;19.10;;;2.60;87.30;;;;;;4997762;28;20032;-76
2022/01/23 05:16:11;;;;;;;45.30;19.42;;;2.60;87.40;;;;;;4997831;28;20049;-77
2022/01/23 05:18:38;;;;;;;38.03;18.95;;;2.50;87.40;;;;;;4997742;28;20030;-77
2022/01/23 05:21:41;;;;;;;38.13;18.33;;;2.50;87.50;;;;;;4997696;28;20038;-77
2022/01/23 05:24:02;;;;;;;38.05;17.30;;;2.50;87.70;;;;;;5014842;28;20459;-78
2022/01/23 05:26:28;;;;;;;36.65;18.48;;;2.60;87.80;;;;;;4981530;28;20037;-79
2022/01/23 05:28:53;;;;;;;34.15;17.20;;;2.70;87.80;;;;;;4997665;28;20017;-79
2022/01/23 05:31:19;;;;;;;40.47;18.50;;;2.70;87.70;;;;;;4981357;28;20030;-78
2022/01/23 05:33:44;;;;;;;37.85;17.95;;;2.70;87.60;;;;;;4997396;28;20429;-78
2022/01/23 05:36:10;;;;;;;37.20;18.02;;;2.70;87.60;;;;;;5014883;28;20066;-77
2022/01/23 05:38:36;;;;;;;37.60;18.40;;;2.80;87.50;;;;;;4997314;28;20025;-77
2022/01/23 05:41:01;;;;;;;38.47;19.52;;;2.80;87.50;;;;;;4997456;28;20401;-77
2022/01/23 05:43:30;;;;;;;33.95;17.40;;;2.80;87.30;;;;;;4997398;28;20030;-77
2022/01/23 05:45:56;;;;;;;33.03;16.17;;;2.80;87.20;;;;;;4997333;28;20030;-77
2022/01/23 05:48:21;;;;;;;30.90;15.90;;;2.80;87.20;;;;;;4981197;28;20026;-77
2022/01/23 05:50:48;;;;;;;28.70;14.45;;;2.70;88.20;;;;;;4997403;28;20061;-78
2022/01/23 05:53:16;;;;;;;30.23;15.75;;;2.60;87.90;;;;;;4997324;28;20053;-77
2022/01/23 05:55:42;;;;;;;30.92;16.05;;;2.50;88.20;;;;;;4997825;28;20126;-78
2022/01/23 05:58:08;;;;;;;32.13;15.15;;;2.50;88.70;;;;;;5005334;28;20053;-77
2022/01/23 06:00:33;;;;;;;34.85;16.63;;;2.40;88.70;;;;;;5000696;28;20060;-77
2022/01/23 06:02:59;;;;;;;36.22;16.10;;;2.40;89.00;;;;;;4997192;28;20048;-77
2022/01/23 06:05:24;;;;;;;34.50;16.20;;;2.40;89.30;;;;;;4997197;28;20386;-77
2022/01/23 06:07:51;;;;;;;32.13;16.73;;;2.40;90.00;;;;;;4997169;28;20018;-77
2022/01/23 06:10:28;;;;;;;33.97;16.98;;;2.40;89.10;;;;;;4997017;28;20026;-77
2022/01/23 06:12:55;;;;;;;32.40;16.08;;;2.40;89.00;;;;;;4982088;28;20026;-78
2022/01/23 06:15:22;;;;;;;36.63;16.77;;;2.40;89.20;;;;;;4996752;28;20543;-77
2022/01/23 06:17:48;;;;;;;42.58;20.17;;;2.40;89.20;;;;;;4996693;28;20128;-77
2022/01/23 06:20:14;;;;;;;42.20;19.20;;;2.30;90.30;;;;;;4996606;28;20172;-77
2022/01/23 06:22:42;;;;;;;38.47;18.42;;;2.30;89.90;;;;;;4996707;28;20018;-77
2022/01/23 06:25:11;;;;;;;41.25;19.25;;;2.30;89.80;;;;;;4980757;28;20538;-77
2022/01/23 06:27:36;;;;;;;48.78;22.73;;;2.30;89.80;;;;;;4996661;28;20026;-77
2022/01/23 06:30:03;;;;;;;50.15;23.00;;;2.30;89.80;;;;;;4996587;28;20033;-78
2022/01/23 06:32:49;;;;;;;41.35;20.35;;;2.30;89.80;;;;;;5013894;28;20431;-77
2022/01/23 06:35:14;;;;;;;45.72;20.98;;;2.30;89.90;;;;;;4996505;28;20129;-77
2022/01/23 06:37:40;;;;;;;38.50;18.58;;;2.30;89.80;;;;;;4995768;28;20036;-77
2022/01/23 06:40:06;;;;;;;37.97;18.98;;;2.40;89.80;;;;;;4996203;28;20026;-76
2022/01/23 06:42:33;;;;;;;40.67;19.08;;;2.40;89.80;;;;;;4980062;28;20084;-76
2022/01/23 06:44:59;;;;;;;38.65;18.65;;;2.50;89.90;;;;;;4995760;28;20126;-77
2022/01/23 06:47:25;;;;;;;40.60;19.30;;;2.50;89.70;;;;;;4996363;28;20120;-77
2022/01/23 06:49:51;;;;;;;39.22;19.05;;;2.50;89.60;;;;;;4996502;28;20056;-77
2022/01/23 06:52:17;;;;;;;42.35;20.45;;;2.60;90.40;;;;;;5013940;28;20018;-77
2022/01/23 06:54:42;;;;;;;36.33;18.67;;;2.60;89.40;;;;;;4996151;28;20080;-78
2022/01/23 06:57:08;;;;;;;40.25;19.55;;;2.60;89.40;;;;;;4996468;28;20026;-78
2022/01/23 06:59:34;;;;;;;39.38;20.77;;;2.60;89.30;;;;;;4996230;28;20434;-78
2022/01/23 07:01:59;;;;;;;40.65;20.00;;;2.60;89.10;;;;;;4996571;28;20029;-78
2022/01/23 07:04:25;;;;;;;41.53;19.48;;;2.60;88.90;;;;;;4996925;28;20025;-79
2022/01/23 07:06:51;;;;;;;41.25;20.35;;;2.60;88.90;;;;;;4996899;28;20030;-77
2022/01/23 07:09:17;;;;;;;42.65;21.05;;;2.60;89.10;;;;;;5001149;28;20029;-77
2022/01/23 07:11:44;;;;;;;39.92;20.02;;;2.60;89.10;;;;;;5019826;28;20029;-76
2022/01/23 07:14:10;;;;;;;36.78;18.05;;;2.70;89.00;;;;;;5020117;28;20017;-76
2022/01/23 07:16:35;;;;;;;39.33;19.60;;;2.70;88.80;;;;;;5008925;28;20030;-76
2022/01/23 07:19:02;;;;;;;39.67;18.90;;;2.70;88.80;;;;;;5016320;28;20010;-78
2022/01/23 07:21:28;;;;;;;36.38;17.83;;;2.70;88.70;;;;;;5013238;28;20050;-77
2022/01/23 07:23:54;;;;;;;36.90;18.55;;;2.70;88.60;;;;;;4989551;28;20053;-76
2022/01/23 07:26:22;;;;;;;35.75;17.67;;;2.70;88.50;;;;;;4984416;28;20061;-77
2022/01/23 07:28:52;;;;;;;35.30;18.67;;;2.70;88.50;;;;;;4998591;28;20048;-77
2022/01/23 07:34:01;;;;;;;38.22;19.10;;;2.80;88.80;;;;;;5014057;28;20383;-77
2022/01/23 07:36:27;;;;;;;49.00;24.58;;;2.80;89.10;;;;;;4996119;28;20044;-80
2022/01/23 07:38:54;;;;;;;45.55;22.20;;;2.90;88.50;;;;;;4996679;28;20469;-79
2022/01/23 07:41:20;;;;;;;43.25;21.30;;;2.90;88.20;;;;;;4996076;28;20065;-78
2022/01/23 07:43:46;;;;;;;40.13;20.08;;;2.90;88.20;;;;;;4995846;28;20509;-78
2022/01/23 07:46:12;;;;;;;42.35;20.05;;;2.90;88.20;;;;;;4995655;28;20022;-77
2022/01/23 07:48:38;;;;;;;39.10;19.35;;;2.90;88.10;;;;;;4995685;28;20041;-78
2022/01/23 07:51:03;;;;;;;41.72;20.08;;;2.90;88.00;;;;;;4999490;28;20022;-78
2022/01/23 07:53:29;;;;;;;37.65;18.13;;;3.00;87.80;;;;;;4999280;28;20395;-78
2022/01/23 07:55:55;;;;;;;39.75;19.27;;;3.00;87.80;;;;;;4999665;28;20120;-78
2022/01/23 07:58:20;;;;;;;63.78;28.13;;;3.00;87.50;;;;;;4983392;28;20053;-76
2022/01/23 08:00:47;;;;;;;70.82;30.75;;;3.00;87.40;;;;;;4999190;28;20037;-76
2022/01/23 08:03:13;;;;;;;65.70;28.73;;;2.90;87.50;;;;;;4983353;28;20030;-78
2022/01/23 08:05:42;;;;;;;57.70;26.25;;;3.00;87.50;;;;;;4998846;28;20034;-77
2022/01/23 08:08:10;;;;;;;49.70;24.45;;;3.00;88.40;;;;;;4999491;28;20368;-76
2022/01/23 08:10:44;;;;;;;52.85;14.85;;;3.00;87.70;;;;;;4999983;28;20037;-82
2022/01/23 08:13:11;;;;;;;36.80;17.48;;;3.70;96.20;;;;;;5016180;28;20556;-80
2022/01/23 08:15:37;;;;;;;52.72;24.55;;;4.00;96.50;;;;;;5000150;28;20217;-81
2022/01/23 08:18:07;;;;;;;47.63;24.63;;;4.50;92.70;;;;;;4982892;28;20106;-80
2022/01/23 08:20:34;;;;;;;43.67;22.80;;;4.40;88.70;;;;;;4998955;28;20038;-80
2022/01/23 08:23:02;;;;;;;40.75;21.05;;;4.20;87.10;;;;;;4982677;28;20072;-79
2022/01/23 08:25:30;;;;;;;42.22;21.50;;;4.10;85.70;;;;;;4998863;28;20038;-78
2022/01/23 08:27:56;;;;;;;37.90;19.48;;;4.10;85.80;;;;;;4982656;28;20080;-79
2022/01/23 08:30:23;;;;;;;36.47;19.65;;;4.00;86.00;;;;;;5016332;28;20100;-78
2022/01/23 08:32:49;;;;;;;37.00;19.77;;;4.40;84.50;;;;;;4998844;28;20449;-82
2022/01/23 08:35:17;;;;;;;35.53;19.45;;;4.60;83.10;;;;;;5016418;28;20058;-81
2022/01/23 08:37:47;;;;;;;40.45;20.75;;;4.60;82.20;;;;;;4998746;28;20026;-80
2022/01/23 08:40:23;;;;;;;35.92;19.98;;;4.50;81.40;;;;;;4998711;28;20038;-81
2022/01/23 08:42:52;;;;;;;35.47;19.85;;;4.50;81.80;;;;;;4998337;28;20033;-78
2022/01/23 08:45:19;;;;;;;37.92;21.45;;;4.80;81.30;;;;;;4998606;28;20057;-80
2022/01/23 08:47:45;;;;;;;36.28;19.45;;;4.70;79.50;;;;;;4982258;28;20128;-81
2022/01/23 08:50:10;;;;;;;35.97;19.90;;;4.60;79.40;;;;;;4998029;28;20176;-81
2022/01/23 08:52:36;;;;;;;38.58;19.45;;;4.40;79.80;;;;;;4998389;28;20475;-82
2022/01/23 08:55:03;;;;;;;39.28;19.65;;;4.30;80.50;;;;;;4998424;28;20026;-82
2022/01/23 08:57:31;;;;;;;42.13;21.70;;;4.10;80.90;;;;;;4982042;28;20033;-82
2022/01/23 08:59:58;;;;;;;36.85;19.40;;;3.90;81.60;;;;;;4997208;28;20517;-81
2022/01/23 09:02:25;;;;;;;33.05;17.60;;;3.70;82.20;;;;;;4997042;28;20033;-83
2022/01/23 09:04:51;;;;;;;31.90;16.75;;;3.70;82.40;;;;;;4998169;28;20048;-82
2022/01/23 09:07:24;;;;;;;34.75;17.85;;;3.70;82.60;;;;;;5015726;28;20387;-81
2022/01/23 09:09:54;;;;;;;34.60;16.77;;;3.70;82.70;;;;;;4998166;28;20085;-81
2022/01/23 09:14:50;;;;;;;40.72;21.38;;;3.80;82.80;;;;;;5021582;28;20041;-76
2022/01/23 09:17:16;;;;;;;44.42;22.08;;;3.80;82.70;;;;;;5014173;28;20030;-81
2022/01/23 09:19:45;;;;;;;36.00;19.08;;;3.90;82.70;;;;;;5013956;28;20029;-82
2022/01/23 09:22:11;;;;;;;39.47;21.60;;;3.80;82.70;;;;;;4998149;28;20038;-79
2022/01/23 09:24:37;;;;;;;41.65;20.92;;;3.90;82.70;;;;;;5013885;28;20056;-78
2022/01/23 09:27:05;;;;;;;43.05;21.48;;;3.90;82.40;;;;;;5013925;28;20430;-76
2022/01/23 09:29:40;;;;;;;38.42;20.88;;;3.90;83.50;;;;;;5013841;28;20018;-82
2022/01/23 09:32:11;;;;;;;41.15;20.10;;;3.90;82.90;;;;;;5013964;28;20056;-78
2022/01/23 09:34:38;;;;;;;36.75;20.08;;;3.90;83.70;;;;;;4997320;28;20034;-77
2022/01/23 09:37:06;;;;;;;36.00;19.77;;;3.90;82.80;;;;;;5013619;28;20030;-74
2022/01/23 09:39:33;;;;;;;37.38;19.55;;;4.00;82.60;;;;;;5013448;28;20026;-79
2022/01/23 09:42:19;;;;;;;32.35;18.85;;;4.00;82.70;;;;;;5013141;28;20053;-79
2022/01/23 09:44:49;;;;;;;31.98;17.38;;;4.00;82.40;;;;;;5013602;28;20025;-78
2022/01/23 09:47:19;;;;;;;33.17;17.52;;;4.10;82.20;;;;;;5013496;28;20032;-78
2022/01/23 09:49:46;;;;;;;33.75;17.95;;;4.10;81.80;;;;;;5013597;28;20544;-78
2022/01/23 09:52:12;;;;;;;40.10;21.08;;;4.10;81.70;;;;;;5013514;28;20033;-79
2022/01/23 09:54:45;;;;;;;32.95;18.58;;;4.10;81.60;;;;;;5013389;28;20036;-78
2022/01/23 09:57:15;;;;;;;38.78;20.70;;;4.10;81.40;;;;;;5013226;28;20533;-80
2022/01/23 09:59:41;;;;;;;32.63;18.42;;;4.10;81.60;;;;;;5013200;28;20466;-80
2022/01/23 10:02:08;;;;;;;40.90;20.50;;;4.10;81.80;;;;;;4996946;28;20049;-82
2022/01/23 10:04:35;;;;;;;40.67;22.23;;;4.10;82.00;;;;;;4997285;28;20076;-79
2022/01/23 10:07:04;;;;;;;37.00;21.23;;;4.10;82.20;;;;;;5012729;28;20116;-79
2022/01/23 10:09:31;;;;;;;38.20;20.83;;;4.10;82.20;;;;;;5012935;28;20379;-77
2022/01/23 10:11:58;;;;;;;35.72;19.23;;;4.10;82.30;;;;;;5012784;28;20032;-84
2022/01/23 10:14:25;;;;;;;34.63;18.92;;;4.20;82.20;;;;;;5013742;28;20449;-80
2022/01/23 10:16:51;;;;;;;29.15;16.73;;;4.20;82.10;;;;;;4989433;28;20040;-81
2022/01/23 10:19:17;;;;;;;28.10;16.48;;;4.30;82.10;;;;;;5012834;28;20026;-81
2022/01/23 10:21:46;;;;;;;30.08;17.08;;;4.30;82.00;;;;;;5012855;28;20145;-80
2022/01/23 10:24:13;;;;;;;27.33;15.52;;;4.30;81.40;;;;;;4996931;28;20061;-80
2022/01/23 10:26:49;;;;;;;29.23;15.85;;;4.20;81.40;;;;;;5013036;28;20034;-80
2022/01/23 10:29:25;;;;;;;23.80;14.63;;;4.20;82.40;;;;;;5012906;28;20133;-80
2022/01/23 10:32:21;;;;;;;24.10;13.75;;;4.20;81.50;;;;;;5012805;28;20025;-80
2022/01/23 10:35:15;;;;;;;21.63;13.20;;;4.20;81.40;;;;;;4992898;28;20513;-80
2022/01/23 10:37:42;;;;;;;28.05;14.27;;;4.30;81.40;;;;;;5008171;28;20498;-81
2022/01/23 10:40:28;;;;;;;28.48;14.48;;;4.30;81.30;;;;;;5012794;28;20087;-81
2022/01/23 10:48:35;;;;;;;32.92;16.73;;;4.40;80.80;;;;;;5014574;28;19912;-82
2022/01/23 10:51:13;;;;;;;27.85;15.43;;;4.40;80.70;;;;;;5013035;28;20501;-82
2022/01/23 10:54:04;;;;;;;25.48;14.63;;;4.50;81.00;;;;;;5012828;28;20163;-82
2022/01/23 10:56:40;;;;;;;26.48;15.32;;;4.50;81.20;;;;;;5013113;28;20104;-82
2022/01/23 10:59:11;;;;;;;27.17;15.60;;;4.50;81.40;;;;;;5013329;28;20033;-83
2022/01/23 11:02:04;;;;;;;28.50;15.52;;;4.60;81.60;;;;;;5012475;28;20044;-81
2022/01/23 11:04:34;;;;;;;28.65;16.55;;;4.50;81.20;;;;;;5012957;28;20497;-81
2022/01/23 11:07:02;;;;;;;29.58;16.98;;;4.40;81.50;;;;;;5012550;28;20029;-80
2022/01/23 11:09:38;;;;;;;26.90;14.75;;;4.30;82.00;;;;;;5012565;28;20033;-80
2022/01/23 11:18:30;;;;;;;25.55;15.10;;;4.40;82.80;;;;;;5015313;28;20060;-84
2022/01/23 11:21:21;;;;;;;26.02;13.98;;;4.30;83.20;;;;;;5013721;28;20050;-84
2022/01/23 11:23:56;;;;;;;24.23;13.35;;;4.30;83.00;;;;;;4986800;28;20078;-83
2022/01/23 11:26:51;;;;;;;23.15;13.77;;;4.40;83.00;;;;;;5014876;28;20086;-84
2022/01/23 11:29:20;;;;;;;20.83;12.30;;;4.40;82.80;;;;;;5013307;28;20030;-83
2022/01/23 11:32:49;;;;;;;19.23;11.48;;;4.50;82.00;;;;;;5012175;28;20578;-83
2022/01/23 11:35:19;;;;;;;22.65;13.05;;;4.50;81.50;;;;;;5012977;28;20495;-82
2022/01/23 11:37:49;;;;;;;25.67;14.75;;;4.60;80.90;;;;;;4979947;28;20042;-81
2022/01/23 11:40:38;;;;;;;21.33;12.40;;;4.70;81.10;;;;;;5015166;28;20042;-79
2022/01/23 11:54:47;;;;;;;16.50;9.63;;;4.80;78.00;;;;;;4971628;28;20090;-80
2022/01/23 11:57:38;;;;;;;17.83;10.75;;;4.80;77.90;;;;;;4955657;28;20043;-82
2022/01/23 12:00:49;;;;;;;17.00;10.00;;;4.80;78.00;;;;;;4971279;28;20031;-80
2022/01/23 12:03:21;;;;;;;16.85;7.78;;;4.80;78.10;;;;;;4959053;28;20074;-79
2022/01/23 12:05:49;;;;;;;10.93;6.72;;;4.80;77.80;;;;;;4954942;28;20141;-81
2022/01/23 12:08:35;;;;;;;9.48;5.63;;;4.80;76.90;;;;;;4971644;28;20039;-86
2022/01/23 12:18:52;;;;;;;3.97;2.65;;;4.90;73.00;;;;;;5012864;28;20025;-82
2022/01/23 12:21:27;;;;;;;2.85;1.92;;;4.80;72.20;;;;;;4995411;28;20038;-81
2022/01/23 12:24:04;;;;;;;3.88;2.55;;;4.90;71.60;;;;;;5011477;28;20367;-80
2022/01/23 12:26:31;;;;;;;3.45;2.45;;;4.90;71.40;;;;;;5011804;28;20025;-82
2022/01/23 12:29:11;;;;;;;2.10;1.80;;;5.00;71.50;;;;;;4995420;28;20031;-81
2022/01/23 12:31:42;;;;;;;3.03;1.98;;;4.90;70.70;;;;;;5011370;28;20493;-81
2022/01/23 12:34:09;;;;;;;3.47;2.53;;;4.90;70.10;;;;;;4995240;28;20030;-83
2022/01/23 12:36:40;;;;;;;4.50;2.83;;;5.00;70.40;;;;;;5012803;28;20040;-80
2022/01/23 12:39:12;;;;;;;4.93;2.92;;;5.00;70.80;;;;;;5031458;28;20554;-79
2022/01/23 12:41:47;;;;;;;3.20;2.15;;;5.10;71.00;;;;;;5014921;28;20108;-79
2022/01/23 12:44:27;;;;;;;2.78;2.17;;;5.10;70.90;;;;;;5016334;28;20022;-81
2022/01/23 12:47:01;;;;;;;4.60;2.13;;;5.10;70.70;;;;;;5015049;28;20371;-79
2022/01/23 12:49:46;;;;;;;4.90;2.60;;;5.10;70.20;;;;;;5012267;28;20080;-79
2022/01/23 12:52:19;;;;;;;2.75;2.38;;;5.10;69.50;;;;;;5014882;28;20430;-80
2022/01/23 12:54:51;;;;;;;4.05;2.70;;;5.10;68.50;;;;;;5014724;28;20100;-80
2022/01/23 12:57:21;;;;;;;4.88;2.80;;;5.00;66.30;;;;;;5014764;28;20033;-80
2022/01/23 12:59:56;;;;;;;3.38;2.78;;;4.90;66.00;;;;;;5014797;28;20029;-79
2022/01/23 13:02:25;;;;;;;5.20;3.33;;;4.90;66.70;;;;;;5014675;28;20539;-80
2022/01/23 13:04:52;;;;;;;5.47;3.58;;;4.90;67.40;;;;;;5014783;28;20022;-79
2022/01/23 13:16:03;;;;;;;8.10;4.03;;;5.00;68.50;;;;;;4996171;28;20120;-78
2022/01/23 13:18:39;;;;;;;7.97;4.28;;;5.10;68.60;;;;;;5014238;28;20058;-77
2022/01/23 13:32:21;;;;;;;6.32;3.90;;;5.10;68.10;;;;;;5015268;28;20029;-78
2022/01/23 13:34:51;;;;;;;6.30;3.72;;;5.10;68.40;;;;;;5013901;28;20050;-77
2022/01/23 13:37:23;;;;;;;6.03;3.08;;;5.10;69.40;;;;;;5013902;28;20394;-77
2022/01/23 13:39:57;;;;;;;4.45;3.10;;;5.10;68.80;;;;;;5014828;28;20045;-77
2022/01/23 13:59:50;;;;;;;6.25;4.25;;;4.90;69.00;;;;;;5015037;28;20082;-79
2022/01/23 14:02:37;;;;;;;6.80;4.00;;;4.80;69.00;;;;;;5013806;28;20048;-80
2022/01/23 14:05:29;;;;;;;5.45;3.58;;;4.80;69.10;;;;;;5014049;28;20383;-79
2022/01/23 14:08:01;;;;;;;4.82;3.20;;;4.80;69.00;;;;;;5011298;28;20041;-77
2022/01/23 14:10:39;;;;;;;5.60;3.92;;;4.70;69.10;;;;;;5040126;28;20124;-78
2022/01/23 14:13:15;;;;;;;4.57;3.15;;;4.80;69.00;;;;;;5035834;28;20152;-78
2022/01/23 14:15:48;;;;;;;4.07;3.20;;;4.70;69.00;;;;;;5051436;28;20022;-77
2022/01/23 14:18:20;;;;;;;5.25;3.53;;;4.70;69.00;;;;;;5037374;28;20057;-77
2022/01/23 14:21:09;;;;;;;6.13;3.72;;;4.70;68.60;;;;;;5030627;28;20511;-77
2022/01/23 14:23:34;;;;;;;5.72;3.70;;;4.70;68.80;;;;;;5017907;28;20465;-77
2022/01/23 14:26:06;;;;;;;4.55;3.33;;;4.60;68.70;;;;;;5016180;28;20092;-77
2022/01/23 14:28:44;;;;;;;5.70;4.00;;;4.60;68.40;;;;;;5015976;28;20026;-77
2022/01/23 14:31:16;;;;;;;4.57;3.22;;;4.60;68.40;;;;;;5014001;28;20040;-77
2022/01/23 14:33:49;;;;;;;5.70;3.67;;;4.50;67.40;;;;;;5012651;28;20487;-77
2022/01/23 14:36:23;;;;;;;5.38;3.30;;;4.50;67.60;;;;;;5012954;28;20041;-77
2022/01/23 14:39:10;;;;;;;6.40;3.70;;;4.40;67.10;;;;;;5012966;28;20053;-78
2022/01/23 14:41:44;;;;;;;5.50;3.58;;;4.30;67.60;;;;;;5012234;28;20133;-78
2022/01/23 14:44:24;;;;;;;6.18;3.65;;;4.20;67.70;;;;;;5013596;28;20092;-77
2022/01/23 14:46:53;;;;;;;6.10;3.75;;;4.20;67.90;;;;;;5012248;28;20445;-77
2022/01/23 14:49:25;;;;;;;6.15;4.07;;;4.20;68.20;;;;;;4995992;28;20120;-77
2022/01/23 14:51:52;;;;;;;5.22;3.40;;;4.30;68.80;;;;;;5012423;28;20475;-77
2022/01/23 14:54:18;;;;;;;7.38;4.70;;;4.30;69.40;;;;;;5012317;28;20085;-77
2022/01/23 14:56:45;;;;;;;5.82;3.33;;;4.30;69.60;;;;;;5013538;28;20050;-77
2022/01/23 14:59:12;;;;;;;4.30;3.05;;;4.30;68.30;;;;;;5011811;28;20509;-78
2022/01/23 15:01:39;;;;;;;9.38;3.40;;;4.30;67.80;;;;;;5012016;28;20053;-77
2022/01/23 15:04:08;;;;;;;5.05;2.83;;;4.30;67.90;;;;;;5012445;28;20029;-78
2022/01/23 15:06:36;;;;;;;5.45;3.78;;;4.20;67.50;;;;;;5012322;28;20030;-79
2022/01/23 15:09:10;;;;;;;4.07;2.92;;;4.20;68.00;;;;;;5012702;28;20116;-78
2022/01/23 15:11:37;;;;;;;4.13;3.05;;;4.20;68.40;;;;;;5011992;28;20368;-78
2022/01/23 15:14:04;;;;;;;5.05;3.05;;;4.20;68.70;;;;;;5013345;28;20069;-77
2022/01/23 15:16:30;;;;;;;5.03;3.03;;;4.10;68.90;;;;;;5011917;28;20049;-78
2022/01/23 15:18:56;;;;;;;4.35;2.88;;;4.20;69.10;;;;;;5012225;28;20029;-78
2022/01/23 15:21:23;;;;;;;4.80;3.13;;;4.20;69.00;;;;;;5011491;28;20034;-77
2022/01/23 15:23:55;;;;;;;4.85;3.13;;;4.20;68.90;;;;;;5011776;28;20088;-77
2022/01/23 15:26:23;;;;;;;7.68;4.30;;;4.20;68.70;;;;;;5013398;28;20072;-77
2022/01/23 15:28:50;;;;;;;7.63;4.38;;;4.20;69.50;;;;;;4995797;28;20026;-78
2022/01/23 15:31:18;;;;;;;4.80;3.00;;;4.10;68.90;;;;;;5011858;28;20113;-78
2022/01/23 15:33:44;;;;;;;6.10;3.20;;;4.10;69.00;;;;;;5012067;28;20030;-78
2022/01/23 15:36:13;;;;;;;4.47;2.95;;;4.10;69.00;;;;;;5012118;28;20021;-77
2022/01/23 15:38:44;;;;;;;4.32;2.83;;;4.10;69.10;;;;;;5013191;28;20028;-77
2022/01/23 15:41:11;;;;;;;3.75;2.80;;;4.00;68.90;;;;;;4996146;28;20069;-77
2022/01/23 15:43:40;;;;;;;6.50;3.70;;;4.10;69.30;;;;;;5013321;28;20490;-78
2022/01/23 15:46:09;;;;;;;5.35;3.25;;;4.00;69.50;;;;;;5012896;28;20037;-78
2022/01/23 15:48:35;;;;;;;4.57;3.00;;;4.00;69.60;;;;;;5013085;28;20034;-79
2022/01/23 15:51:02;;;;;;;7.82;5.15;;;3.90;69.70;;;;;;5013130;28;20113;-79
2022/01/23 15:53:28;;;;;;;6.88;4.47;;;4.00;69.80;;;;;;5028077;28;20022;-79
2022/01/23 15:55:54;;;;;;;8.18;5.18;;;4.00;69.70;;;;;;5011910;28;20029;-79
2022/01/23 15:58:20;;;;;;;16.85;9.60;;;4.00;69.80;;;;;;5012049;28;20459;-78
2022/01/23 16:00:46;;;;;;;12.80;7.72;;;4.00;69.80;;;;;;5012890;28;20424;-79
2022/01/23 16:03:12;;;;;;;21.30;12.90;;;3.90;70.80;;;;;;5011247;28;20043;-78
2022/01/23 16:05:38;;;;;;;10.70;5.60;;;3.90;70.10;;;;;;5011574;28;20022;-78
2022/01/23 16:08:04;;;;;;;8.50;5.20;;;3.90;70.20;;;;;;5011387;28;20359;-77
2022/01/23 16:10:30;;;;;;;12.45;8.43;;;3.90;70.40;;;;;;5012676;28;20424;-77
2022/01/23 16:12:56;;;;;;;9.70;5.85;;;3.90;70.50;;;;;;5015408;28;20084;-78
2022/01/23 16:15:22;;;;;;;11.45;6.97;;;3.90;70.60;;;;;;5015484;28;20356;-78
2022/01/23 16:17:49;;;;;;;41.63;22.15;;;3.90;70.70;;;;;;5017003;28;20026;-79
2022/01/23 16:20:16;;;;;;;13.93;7.38;;;3.90;70.70;;;;;;5015825;28;20028;-77
2022/01/23 16:22:44;;;;;;;14.68;9.05;;;3.80;70.80;;;;;;5016475;28;20025;-78
2022/01/23 16:25:11;;;;;;;49.63;26.00;;;3.90;70.90;;;;;;5031501;28;20050;-78
2022/01/23 16:27:37;;;;;;;34.08;16.13;;;3.80;70.90;;;;;;5015086;28;20030;-77
2022/01/23 16:30:05;;;;;;;46.47;23.63;;;3.80;71.00;;;;;;5015343;28;20033;-79
2022/01/23 16:32:31;;;;;;;26.55;13.90;;;3.80;71.10;;;;;;5014997;28;20029;-76
2022/01/23 16:34:56;;;;;;;24.80;12.85;;;3.80;71.40;;;;;;5015002;28;20034;-78